This is the latest recevied weather packets stored in our database for station/object KA1STV. If no packets are shown the sender has not sent any weather packets the latest 1 day(s).
| Time | Temp. | Humidity | Pressure | Rain* | Wind** | Luminosity | Snow |
|---|---|---|---|---|---|---|---|
| 1778094946 | 15° C | 99% | 1005.7 hPa | 1.27 mm | - | 71 W/m² | - |
| 1778093430 | 15° C | 98% | 1006.2 hPa | 1.78 mm | - | 64 W/m² | - |
| 1778088581 | 16.67° C | 93% | 1006.5 hPa | 3.05 mm | - | 92 W/m² | - |
| 1778084937 | 19.44° C | 79% | 1006.8 hPa | 0 mm | - | 136 W/m² | - |
| 1778084030 | 19.44° C | 78% | 1007.1 hPa | 0 mm | - | 125 W/m² | - |
| 1778083123 | 18.89° C | 79% | 1007.3 hPa | 0 mm | - | 212 W/m² | - |
| 1778080184 | 17.78° C | 81% | 1008.1 hPa | 0 mm | - | 90 W/m² | - |
| 1778079577 | 17.78° C | 81% | 1008.1 hPa | 0 mm | - | 160 W/m² | - |
| 1778079273 | 17.78° C | 81% | 1008.1 hPa | 0 mm | - | 170 W/m² | - |
| 1778076552 | 17.22° C | 83% | 1008.2 hPa | 0 mm | - | 154 W/m² | - |
| 1778074732 | 16.67° C | 84% | 1007.9 hPa | 0 mm | - | 267 W/m² | - |
| 1778074125 | 16.11° C | 86% | 1008 hPa | 0 mm | - | 175 W/m² | - |
| 1778072006 | 15.56° C | 87% | 1008.3 hPa | 0 mm | - | 127 W/m² | - |
| 1778071401 | 15.56° C | 88% | 1008.4 hPa | 0 mm | - | 145 W/m² | - |
| 1778070797 | 15.56° C | 88% | 1008.7 hPa | 0 mm | - | 103 W/m² | - |
| 1778070494 | 15° C | 89% | 1008.8 hPa | 0 mm | - | 131 W/m² | - |
| 1778070191 | 15° C | 89% | 1008.6 hPa | 0 mm | - | 106 W/m² | - |
| 1778069889 | 15° C | 90% | 1008.7 hPa | 0 mm | - | 98 W/m² | - |
| 1778069283 | 14.44° C | 90% | 1008.6 hPa | 0 mm | - | 95 W/m² | - |
| 1778068678 | 14.44° C | 91% | 1008.6 hPa | 0 mm | - | 60 W/m² | - |
| 1778068376 | 14.44° C | 91% | 1008.8 hPa | 0 mm | - | 72 W/m² | - |
| 1778067771 | 13.89° C | 92% | 1008.3 hPa | 0 mm | - | 62 W/m² | - |
| 1778066560 | 13.89° C | 93% | 1008.5 hPa | 0 mm | - | 42 W/m² | - |
| 1778065652 | 13.33° C | 93% | 1008.6 hPa | 0 mm | - | 43 W/m² | - |
| 1778065350 | 13.33° C | 93% | 1008.7 hPa | 0 mm | - | 48 W/m² | - |
* Rain latest hour (hover to see other rain measurements)
** Current wind speed in m/s (hover to see current wind gust speed)